地図

経路データ

SID SEASON NUMBER BASIN SUBBASIN NAME ISO_TIME NATURE LAT LON WMO_WIND WMO_PRES WMO_AGENCY TRACK_TYPE DIST2LAND LANDFALL IFLAG USA_AGENCY USA_ATCF_ID USA_LAT USA_LON USA_RECORD USA_STATUS USA_WIND USA_PRES USA_SSHS USA_R34_NE USA_R34_SE USA_R34_SW USA_R34_NW USA_R50_NE USA_R50_SE USA_R50_SW USA_R50_NW USA_R64_NE USA_R64_SE USA_R64_SW USA_R64_NW USA_POCI USA_ROCI USA_RMW USA_EYE TOKYO_LAT TOKYO_LON TOKYO_GRADE TOKYO_WIND TOKYO_PRES TOKYO_R50_DIR TOKYO_R50_LONG TOKYO_R50_SHORT TOKYO_R30_DIR TOKYO_R30_LONG TOKYO_R30_SHORT TOKYO_LAND CMA_LAT CMA_LON CMA_CAT CMA_WIND CMA_PRES HKO_LAT HKO_LON HKO_CAT HKO_WIND HKO_PRES NEWDELHI_LAT NEWDELHI_LON NEWDELHI_GRADE NEWDELHI_WIND NEWDELHI_PRES NEWDELHI_CI NEWDELHI_DP NEWDELHI_POCI REUNION_LAT REUNION_LON REUNION_TYPE REUNION_WIND REUNION_PRES REUNION_TNUM REUNION_CI REUNION_RMW REUNION_R34_NE REUNION_R34_SE REUNION_R34_SW REUNION_R34_NW REUNION_R50_NE REUNION_R50_SE REUNION_R50_SW REUNION_R50_NW REUNION_R64_NE REUNION_R64_SE REUNION_R64_SW REUNION_R64_NW BOM_LAT BOM_LON BOM_TYPE BOM_WIND BOM_PRES BOM_TNUM BOM_CI BOM_RMW BOM_R34_NE BOM_R34_SE BOM_R34_SW BOM_R34_NW BOM_R50_NE BOM_R50_SE BOM_R50_SW BOM_R50_NW BOM_R64_NE BOM_R64_SE BOM_R64_SW BOM_R64_NW BOM_ROCI BOM_POCI BOM_EYE BOM_POS_METHOD BOM_PRES_METHOD NADI_LAT NADI_LON NADI_CAT NADI_WIND NADI_PRES WELLINGTON_LAT WELLINGTON_LON WELLINGTON_WIND WELLINGTON_PRES DS824_LAT DS824_LON DS824_STAGE DS824_WIND DS824_PRES TD9636_LAT TD9636_LON TD9636_STAGE TD9636_WIND TD9636_PRES TD9635_LAT TD9635_LON TD9635_WIND TD9635_PRES TD9635_ROCI NEUMANN_LAT NEUMANN_LON NEUMANN_CLASS NEUMANN_WIND NEUMANN_PRES MLC_LAT MLC_LON MLC_CLASS MLC_WIND MLC_PRES USA_GUST BOM_GUST BOM_GUST_PER REUNION_GUST REUNION_GUST_PER USA_SEAHGT USA_SEARAD_NE USA_SEARAD_SE USA_SEARAD_SW USA_SEARAD_NW STORM_SPEED STORM_DIR
1971221N15263 1971 90 EP MM KATRINA 1971-08-08 12:00:00 TS 14.5000 -97.4000 25 hurdat_epa main 148 148 O________OO___ hurdat_epa EP111971 14.5000 -97.4000 TD 25 -1 14.5000 -97.4000 TC 25 14.5000 -97.4000 2 8 261
1971221N15263 1971 90 EP MM KATRINA 1971-08-08 15:00:00 TS 14.4400 -97.7892 main 178 178 P________PP___ EP111971 14.4301 -97.7876 TD 35 0 14.4301 -97.7876 TC 35 14.4796 -97.7955 2 8 264
1971221N15263 1971 90 EP MM KATRINA 1971-08-08 18:00:00 TS 14.4134 -98.2025 45 hurdat_epa main 184 184 O________OP___ hurdat_epa EP111971 14.4000 -98.2000 TS 45 0 14.4000 -98.2000 TC 45 14.4672 -98.2127 2 8 270
1971221N15263 1971 90 EP MM KATRINA 1971-08-08 21:00:00 TS 14.4421 -98.6647 main 203 193 P________PP___ EP111971 14.4348 -98.6625 TS 45 0 14.4348 -98.6625 TC 45 14.4712 -98.6736 2 10 275
1971221N15263 1971 90 EP MM KATRINA 1971-08-09 00:00:00 TS 14.5000 -99.2000 45 hurdat_epa main 211 211 O________OO___ hurdat_epa EP111971 14.5000 -99.2000 TS 45 0 14.5000 -99.2000 TC 45 14.5000 -99.2000 2 11 275
1971221N15263 1971 90 EP MM KATRINA 1971-08-09 03:00:00 TS 14.5343 -99.8288 main 239 237 P________PP___ EP111971 14.5276 -99.8352 TS 45 0 14.5276 -99.8352 TC 45 14.5612 -99.8032 2 13 275
1971221N15263 1971 90 EP MM KATRINA 1971-08-09 06:00:00 TS 14.6122 -100.490 45 hurdat_epa main 250 248 O________OP___ hurdat_epa EP111971 14.6000 -100.500 TS 45 0 14.6000 -100.500 TC 45 14.6609 -100.450 2 13 281
1971221N15263 1971 90 EP MM KATRINA 1971-08-09 09:00:00 TS 14.7770 -101.123 main 260 260 P________PP___ EP111971 14.7699 -101.130 TS 45 0 14.7699 -101.130 TC 45 14.8050 -101.097 2 12 288
1971221N15263 1971 90 EP MM KATRINA 1971-08-09 12:00:00 TS 15.0000 -101.700 45 hurdat_epa main 264 257 O________OO___ hurdat_epa EP111971 15.0000 -101.700 TS 45 0 15.0000 -101.700 TC 45 15.0000 -101.700 2 11 294
1971221N15263 1971 90 EP MM KATRINA 1971-08-09 15:00:00 TS 15.2275 -102.177 main 262 250 P________PP___ EP111971 15.2273 -102.173 TS 45 0 15.2273 -102.173 TC 45 15.2284 -102.193 2 10 300
1971221N15263 1971 90 EP MM KATRINA 1971-08-09 18:00:00 TS 15.5018 -102.608 45 hurdat_epa main 257 243 O________OP___ hurdat_epa EP111971 15.5000 -102.600 TS 45 0 15.5000 -102.600 TC 45 15.5088 -102.638 2 10 306
1971221N15263 1971 90 EP MM KATRINA 1971-08-09 21:00:00 TS 15.8288 -103.047 main 246 218 P________PP___ EP111971 15.8274 -103.043 TS 45 0 15.8274 -103.043 TC 45 15.8348 -103.065 2 11 309
1971221N15263 1971 90 EP MM KATRINA 1971-08-10 00:00:00 TS 16.2000 -103.500 45 hurdat_epa main 221 197 O________OO___ hurdat_epa EP111971 16.2000 -103.500 TS 45 0 16.2000 -103.500 TC 45 16.2000 -103.500 2 12 310
1971221N15263 1971 90 EP MM KATRINA 1971-08-10 03:00:00 TS 16.5833 -103.994 main 197 173 P________PP___ EP111971 16.5849 -103.993 TS 45 0 16.5849 -103.993 TC 45 16.5769 -103.998 2 13 310
1971221N15263 1971 90 EP MM KATRINA 1971-08-10 06:00:00 TS 16.9980 -104.502 45 hurdat_epa main 179 176 O________OP___ hurdat_epa EP111971 17.0000 -104.500 TS 45 0 17.0000 -104.500 TC 45 16.9901 -104.508 2 13 312
1971221N15263 1971 90 EP MM KATRINA 1971-08-10 09:00:00 TS 17.4405 -105.003 main 188 163 P________PP___ EP111971 17.4424 -105.000 TS 45 0 17.4424 -105.000 TC 45 17.4332 -105.014 2 13 313
1971221N15263 1971 90 EP MM KATRINA 1971-08-10 12:00:00 TS 17.9000 -105.500 45 hurdat_epa main 163 153 O________OO___ hurdat_epa EP111971 17.9000 -105.500 TS 45 0 17.9000 -105.500 TC 45 17.9000 -105.500 2 13 313
1971221N15263 1971 90 EP MM KATRINA 1971-08-10 15:00:00 TS 18.3413 -106.014 main 161 153 P________PP___ EP111971 18.3350 -106.023 TS 45 0 18.3350 -106.023 TC 45 18.3662 -105.979 2 13 314
1971221N15263 1971 90 EP MM KATRINA 1971-08-10 18:00:00 TS 18.8110 -106.487 45 hurdat_epa main 161 154 O________OP___ hurdat_epa EP111971 18.8000 -106.500 TS 45 0 18.8000 -106.500 TC 45 18.8550 -106.433 2 13 321
1971221N15263 1971 90 EP MM KATRINA 1971-08-10 21:00:00 TS 19.3412 -106.879 main 166 160 P________PP___ EP111971 19.3349 -106.888 TS 50 0 19.3349 -106.888 TC 50 19.3663 -106.845 2 13 328
1971221N15263 1971 90 EP MM KATRINA 1971-08-11 00:00:00 TS 19.9000 -107.200 55 hurdat_epa main 166 162 O________OO___ hurdat_epa EP111971 19.9000 -107.200 TS 55 0 19.9000 -107.200 TC 55 19.9000 -107.200 2 13 333
1971221N15263 1971 90 EP MM KATRINA 1971-08-11 03:00:00 TS 20.4510 -107.476 main 187 187 P________PP___ EP111971 20.4424 -107.473 TS 55 0 20.4424 -107.473 TC 55 20.4853 -107.491 2 12 337
1971221N15263 1971 90 EP MM KATRINA 1971-08-11 06:00:00 TS 21.0174 -107.705 55 hurdat_epa main 218 218 O________OP___ hurdat_epa EP111971 21.0000 -107.700 TS 55 0 21.0000 -107.700 TC 55 21.0868 -107.726 2 13 341
1971221N15263 1971 90 EP MM KATRINA 1971-08-11 09:00:00 TS 21.6379 -107.911 main 234 181 P________PP___ EP111971 21.6299 -107.908 TS 52 0 21.6299 -107.908 TC 52 21.6699 -107.922 2 12 343
1971221N15263 1971 90 EP MM KATRINA 1971-08-11 12:00:00 TS 22.2000 -108.100 50 hurdat_epa main 181 139 O________OO___ hurdat_epa EP111971 22.2000 -108.100 TS 50 0 22.2000 -108.100 TC 50 22.2000 -108.100 2 10 339
1971221N15263 1971 90 EP MM KATRINA 1971-08-11 15:00:00 TS 22.5913 -108.308 main 139 107 P________PP___ EP111971 22.5800 -108.308 TS 47 0 22.5800 -108.308 TC 47 22.6365 -108.310 2 8 333
1971221N15263 1971 90 EP MM KATRINA 1971-08-11 18:00:00 TS 22.9235 -108.501 45 hurdat_epa main 107 72 O________OP___ hurdat_epa EP111971 22.9000 -108.500 TS 45 0 22.9000 -108.500 TC 45 23.0174 -108.503 2 8 335
1971221N15263 1971 90 EP MM KATRINA 1971-08-11 21:00:00 TS 23.3129 -108.666 main 72 65 P________PP___ EP111971 23.3000 -108.665 TS 45 0 23.3000 -108.665 TC 45 23.3646 -108.669 2 8 341
1971221N15263 1971 90 EP MM KATRINA 1971-08-12 00:00:00 TS 23.7000 -108.800 45 hurdat_epa main 69 69 O________OO___ hurdat_epa EP111971 23.7000 -108.800 TS 45 0 23.7000 -108.800 TC 45 23.7000 -108.800 2 8 343
1971221N15263 1971 90 EP MM KATRINA 1971-08-12 03:00:00 TS 24.0542 -108.916 main 82 82 P________PP___ EP111971 24.0575 -108.923 TS 45 0 24.0575 -108.923 TC 45 24.0413 -108.889 2 7 346
1971221N15263 1971 90 EP MM KATRINA 1971-08-12 06:00:00 TS 24.3984 -108.991 45 hurdat_epa main 92 82 O________OP___ hurdat_epa EP111971 24.4000 -109.000 TS 45 0 24.4000 -109.000 TC 45 24.3900 -108.945 2 7 352
1971221N15263 1971 90 EP MM KATRINA 1971-08-12 09:00:00 TS 24.7493 -109.024 main 82 44 P________PP___ EP111971 24.7500 -109.030 TS 45 0 24.7500 -109.030 TC 45 24.7438 -108.978 2 7 0
1971221N15263 1971 90 EP MM KATRINA 1971-08-12 12:00:00 TS 25.1000 -109.000 45 hurdat_epa main 44 11 O________OO___ hurdat_epa EP111971 25.1000 -109.000 TS 45 0 25.1000 -109.000 TC 45 25.1000 -109.000 6 7 7
1971221N15263 1971 90 EP MM KATRINA 1971-08-12 15:00:00 TS 25.4575 -108.923 main 0 0 P________P____ EP111971 25.4575 -108.923 TS 35 0 25.4575 -108.923 TC 35 6 7 15
1971221N15263 1971 90 EP MM KATRINA 1971-08-12 18:00:00 MX 25.8000 -108.800 25 hurdat_epa main 0 0 O________O____ hurdat_epa EP111971 25.8000 -108.800 TD 25 -1 25.8000 -108.800 25 6 7 20
1971221N15263 1971 90 EP MM KATRINA 1971-08-12 21:00:00 MX 26.1100 -108.655 main 0 0 P________P____ EP111971 26.1100 -108.655 TD 25 -1 26.1100 -108.655 25 6 7 24
1971221N15263 1971 90 EP MM KATRINA 1971-08-13 00:00:00 MX 26.4000 -108.500 25 hurdat_epa main 0 O________O____ hurdat_epa EP111971 26.4000 -108.500 TD 25 -1 26.4000 -108.500 25 6 26

IBTrACS Databaseについて

本データベースは、米国NOAAが公開する1842年以降の世界の熱帯低気圧のベストトラックデータアーカイブInternational Best Track Archive for Climate Stewardship (IBTrACS)を、ウェブで閲覧しやすい形式に変換したものです。

最終更新日:2021-10-08